Terminal Aerodrome Forecast
Issued by NWS

Home | Current Version | Previous Version | Text Only | Print | Product List | Glossary On
Versions: 1 2 3 4 5 6 7 8 9 10 11 12 13
095
FTAK31 PAJN 261739
TAFAJN
TAF
PAJN 261739Z 2618/2718 12015KT P6SM -RA SCT010 BKN045 OVC060
     FM270900 11013KT P6SM VCSH SCT025 BKN050
     FM271300 11018G28KT P6SM -SHRA OVC040=

USA.gov is the U.S. government's official web portal to all federal, state and local government web resources and services.